createdAt,value
2022-11-17T00:01:10.260Z,97181.00
2022-11-17T00:02:43.365Z,97183.00
2022-11-17T00:04:16.511Z,97176.00
2022-11-17T00:05:49.690Z,97158.00
2022-11-17T00:07:23.912Z,97175.00
2022-11-17T00:08:57.210Z,97162.00
2022-11-17T00:10:29.383Z,97174.00
2022-11-17T00:12:22.839Z,97159.00
2022-11-17T00:14:13.920Z,97164.00
2022-11-17T00:15:47.184Z,97161.00
2022-11-17T00:17:20.310Z,97154.00
2022-11-17T00:19:11.280Z,97151.00
2022-11-17T00:21:02.190Z,97147.00
2022-11-17T00:22:35.293Z,97137.00
2022-11-17T00:24:08.787Z,97145.00
2022-11-17T00:25:42.246Z,97145.00
2022-11-17T00:27:17.335Z,97129.00
2022-11-17T00:28:54.360Z,97130.00
2022-11-17T00:30:45.493Z,97135.00
2022-11-17T00:32:37.971Z,97118.00
2022-11-17T00:34:15.601Z,97115.00
2022-11-17T00:35:54.233Z,97113.00
2022-11-17T00:37:29.684Z,97101.00
2022-11-17T00:39:01.965Z,97105.00
2022-11-17T00:40:35.137Z,97092.00
2022-11-17T00:42:08.248Z,97089.00
2022-11-17T00:43:42.793Z,97081.00
2022-11-17T00:45:16.083Z,97070.00
2022-11-17T00:46:49.452Z,97075.00
2022-11-17T00:48:22.806Z,97076.00
2022-11-17T00:49:55.975Z,97068.00
2022-11-17T00:51:28.378Z,97057.00
2022-11-17T00:53:01.473Z,97055.00
2022-11-17T00:54:34.831Z,97049.00
2022-11-17T00:56:07.469Z,97039.00
2022-11-17T00:57:40.626Z,97041.00
2022-11-17T00:59:15.744Z,97040.00
2022-11-17T01:00:50.051Z,97028.00
2022-11-17T01:02:23.238Z,97036.00
2022-11-17T01:04:02.952Z,97019.00
2022-11-17T01:05:36.693Z,97015.00
2022-11-17T01:07:09.811Z,97006.00
2022-11-17T01:08:42.482Z,97012.00
2022-11-17T01:10:15.696Z,97006.00
2022-11-17T01:11:51.852Z,96996.00
2022-11-17T01:13:24.153Z,96992.00
2022-11-17T01:14:58.663Z,96989.00
2022-11-17T01:16:33.044Z,96999.00
2022-11-17T01:18:05.315Z,96987.00
2022-11-17T01:19:38.491Z,96982.00
2022-11-17T01:21:14.934Z,96973.00
2022-11-17T01:22:48.065Z,96981.00
2022-11-17T01:24:21.226Z,96981.00
2022-11-17T01:25:53.343Z,96979.00
2022-11-17T01:27:26.475Z,96980.00
2022-11-17T01:29:01.038Z,96971.00
2022-11-17T01:30:35.636Z,96976.00
2022-11-17T01:32:08.838Z,96961.00
2022-11-17T01:33:43.066Z,96976.00
2022-11-17T01:35:16.472Z,96957.00
2022-11-17T01:37:07.501Z,96957.00
2022-11-17T01:38:41.135Z,96957.00
2022-11-17T01:40:13.664Z,96964.00
2022-11-17T01:41:46.892Z,96954.00
2022-11-17T01:43:40.019Z,96960.00
2022-11-17T01:45:21.671Z,96954.00
2022-11-17T01:47:00.632Z,96952.00
2022-11-17T01:48:35.101Z,96947.00
2022-11-17T01:50:25.845Z,96941.00
2022-11-17T01:52:05.636Z,96938.00
2022-11-17T01:53:39.470Z,96928.00
2022-11-17T01:55:13.370Z,96926.00
2022-11-17T01:56:53.929Z,96919.00
2022-11-17T01:58:32.594Z,96912.00
2022-11-17T02:00:09.646Z,96918.00
2022-11-17T02:01:55.525Z,96925.00
2022-11-17T02:03:35.335Z,96922.00
2022-11-17T02:05:25.366Z,96914.00
2022-11-17T02:07:09.136Z,96922.00
2022-11-17T02:08:47.898Z,96911.00
2022-11-17T02:10:20.377Z,96916.00
2022-11-17T02:11:53.974Z,96902.00
2022-11-17T02:13:28.714Z,96899.00
2022-11-17T02:15:02.207Z,96894.00
2022-11-17T02:16:35.349Z,96904.00
2022-11-17T02:18:07.616Z,96900.00
2022-11-17T02:19:45.333Z,96895.00
2022-11-17T02:21:54.786Z,96885.00
2022-11-17T02:23:56.159Z,96893.00
2022-11-17T02:25:53.202Z,96883.00
2022-11-17T02:28:04.821Z,96890.00
2022-11-17T02:29:48.243Z,96882.00
2022-11-17T02:31:29.852Z,96871.00
2022-11-17T02:33:09.305Z,96863.00
2022-11-17T02:34:50.286Z,96863.00
2022-11-17T02:36:35.283Z,96861.00
2022-11-17T02:38:24.479Z,96862.00
2022-11-17T02:40:07.020Z,96868.00
2022-11-17T02:41:51.212Z,96854.00
2022-11-17T02:43:52.131Z,96858.00
2022-11-17T02:45:30.399Z,96857.00
2022-11-17T02:47:11.733Z,96851.00
2022-11-17T02:48:52.368Z,96844.00
2022-11-17T02:50:28.768Z,96849.00
2022-11-17T02:52:03.932Z,96848.00
2022-11-17T02:53:38.836Z,96846.00
2022-11-17T02:55:13.336Z,96840.00
2022-11-17T02:56:46.628Z,96839.00
2022-11-17T02:58:20.439Z,96846.00
2022-11-17T02:59:54.983Z,96834.00
2022-11-17T03:02:22.416Z,96831.00
2022-11-17T03:04:30.353Z,96832.00
2022-11-17T03:06:20.481Z,96826.00
2022-11-17T03:08:14.880Z,96817.00
2022-11-17T03:10:00.874Z,96813.00
2022-11-17T03:11:46.230Z,96810.00
2022-11-17T03:13:26.934Z,96825.00
2022-11-17T03:15:08.210Z,96808.00
2022-11-17T03:16:54.085Z,96811.00
2022-11-17T03:18:36.463Z,96805.00
2022-11-17T03:20:17.411Z,96807.00
2022-11-17T03:22:00.445Z,96800.00
2022-11-17T03:23:43.733Z,96803.00
2022-11-17T03:25:23.247Z,96807.00
2022-11-17T03:27:04.647Z,96796.00
2022-11-17T03:28:39.742Z,96783.00
2022-11-17T03:30:15.879Z,96785.00
2022-11-17T03:31:53.888Z,96802.00
2022-11-17T03:33:29.906Z,96791.00
2022-11-17T03:35:09.465Z,96781.00
2022-11-17T03:36:52.924Z,96784.00
2022-11-17T03:38:33.008Z,96780.00
2022-11-17T03:40:12.219Z,96774.00
2022-11-17T03:41:52.125Z,96776.00
2022-11-17T03:43:28.055Z,96780.00
2022-11-17T03:45:07.446Z,96781.00
2022-11-17T03:46:48.325Z,96786.00
2022-11-17T03:48:28.226Z,96779.00
2022-11-17T03:50:07.308Z,96780.00
2022-11-17T03:51:39.647Z,96778.00
2022-11-17T03:53:13.084Z,96780.00
2022-11-17T03:54:46.427Z,96766.00
2022-11-17T03:56:35.508Z,96768.00
2022-11-17T03:58:16.707Z,96765.00
2022-11-17T03:59:58.466Z,96765.00
2022-11-17T04:01:34.230Z,96768.00
2022-11-17T04:03:09.005Z,96757.00
2022-11-17T04:05:00.557Z,96765.00
2022-11-17T04:06:33.679Z,96768.00
2022-11-17T04:08:06.265Z,96760.00
2022-11-17T04:09:39.643Z,96767.00
2022-11-17T04:11:30.586Z,96756.00
2022-11-17T04:13:21.461Z,96763.00
2022-11-17T04:15:12.279Z,96747.00
2022-11-17T04:16:45.878Z,96760.00
2022-11-17T04:18:22.089Z,96745.00
2022-11-17T04:19:56.020Z,96755.00
2022-11-17T04:21:29.171Z,96756.00
2022-11-17T04:23:07.548Z,96743.00
2022-11-17T04:24:40.945Z,96735.00
2022-11-17T04:26:31.628Z,96733.00
2022-11-17T04:28:22.564Z,96730.00
2022-11-17T04:29:55.750Z,96730.00
2022-11-17T04:31:30.574Z,96745.00
2022-11-17T04:33:03.675Z,96719.00
2022-11-17T04:34:40.770Z,96730.00
2022-11-17T04:36:16.656Z,96726.00
2022-11-17T04:37:49.782Z,96723.00
2022-11-17T04:39:22.949Z,96711.00
2022-11-17T04:41:20.924Z,96709.00
2022-11-17T04:42:52.955Z,96708.00
2022-11-17T04:44:30.480Z,96706.00
2022-11-17T04:46:02.675Z,96709.00
2022-11-17T04:47:35.825Z,96707.00
2022-11-17T04:49:09.622Z,96716.00
2022-11-17T04:50:43.216Z,96714.00
2022-11-17T04:52:16.384Z,96712.00
2022-11-17T04:53:50.348Z,96723.00
2022-11-17T04:55:23.627Z,96714.00
2022-11-17T04:56:57.256Z,96723.00
2022-11-17T04:58:29.752Z,96709.00
2022-11-17T05:00:03.283Z,96707.00
2022-11-17T05:01:37.508Z,96719.00
2022-11-17T05:03:09.681Z,96725.00
2022-11-17T05:04:58.015Z,96721.00
2022-11-17T05:06:34.932Z,96712.00
2022-11-17T05:08:08.117Z,96701.00
2022-11-17T05:09:41.302Z,96707.00
2022-11-17T05:11:34.188Z,96711.00
2022-11-17T05:13:25.049Z,96717.00
2022-11-17T05:14:58.343Z,96714.00
2022-11-17T05:16:54.583Z,96705.00
2022-11-17T05:18:26.857Z,96712.00
2022-11-17T05:20:01.340Z,96706.00
2022-11-17T05:21:35.133Z,96695.00
2022-11-17T05:23:25.691Z,96687.00
2022-11-17T05:24:58.922Z,96691.00
2022-11-17T05:26:34.741Z,96689.00
2022-11-17T05:28:07.972Z,96682.00
2022-11-17T05:29:41.097Z,96675.00
2022-11-17T05:31:13.991Z,96673.00
2022-11-17T05:32:47.196Z,96681.00
2022-11-17T05:34:20.585Z,96677.00
2022-11-17T05:35:52.947Z,96669.00
2022-11-17T05:37:27.497Z,96676.00
2022-11-17T05:39:00.638Z,96669.00
2022-11-17T05:40:33.937Z,96669.00
2022-11-17T05:42:07.189Z,96661.00
2022-11-17T05:43:40.613Z,96664.00
2022-11-17T05:45:14.020Z,96664.00
2022-11-17T05:46:47.422Z,96654.00
2022-11-17T05:48:21.124Z,96660.00
2022-11-17T05:49:54.237Z,96659.00
2022-11-17T05:51:27.471Z,96657.00
2022-11-17T05:53:02.020Z,96659.00
2022-11-17T05:54:36.080Z,96663.00
2022-11-17T05:56:24.797Z,96654.00
2022-11-17T05:58:01.698Z,96663.00
2022-11-17T05:59:42.029Z,96660.00
2022-11-17T06:01:17.769Z,96666.00
2022-11-17T06:02:57.725Z,96656.00
2022-11-17T06:04:31.847Z,96648.00
2022-11-17T06:06:05.978Z,96655.00
2022-11-17T06:07:40.515Z,96659.00
2022-11-17T06:09:15.893Z,96668.00
2022-11-17T06:10:49.314Z,96672.00
2022-11-17T06:12:22.645Z,96665.00
2022-11-17T06:13:55.794Z,96663.00
2022-11-17T06:15:30.041Z,96665.00
2022-11-17T06:17:08.426Z,96660.00
2022-11-17T06:18:46.585Z,96672.00
2022-11-17T06:20:25.659Z,96668.00
2022-11-17T06:22:15.809Z,96664.00
2022-11-17T06:23:51.028Z,96677.00
2022-11-17T06:25:25.970Z,96664.00
2022-11-17T06:26:59.235Z,96676.00
2022-11-17T06:28:35.887Z,96668.00
2022-11-17T06:30:10.012Z,96675.00
2022-11-17T06:31:45.893Z,96673.00
2022-11-17T06:33:20.157Z,96669.00
2022-11-17T06:34:56.177Z,96666.00
2022-11-17T06:36:31.475Z,96673.00
2022-11-17T06:38:04.914Z,96674.00
2022-11-17T06:39:38.158Z,96667.00
2022-11-17T06:41:13.013Z,96668.00
2022-11-17T06:43:03.644Z,96670.00
2022-11-17T06:44:36.986Z,96674.00
2022-11-17T06:46:10.089Z,96669.00
2022-11-17T06:47:43.672Z,96678.00
2022-11-17T06:49:17.367Z,96666.00
2022-11-17T06:50:50.595Z,96675.00
2022-11-17T06:52:25.023Z,96676.00
2022-11-17T06:53:58.309Z,96683.00
2022-11-17T06:55:31.724Z,96686.00
2022-11-17T06:57:06.175Z,96688.00
2022-11-17T06:58:41.323Z,96691.00
2022-11-17T07:00:16.144Z,96691.00
2022-11-17T07:01:49.381Z,96680.00
2022-11-17T07:03:22.517Z,96686.00
2022-11-17T07:04:55.592Z,96694.00
2022-11-17T07:06:28.849Z,96688.00
2022-11-17T07:08:04.444Z,96689.00
2022-11-17T07:09:37.781Z,96686.00
2022-11-17T07:11:13.806Z,96691.00
2022-11-17T07:12:47.534Z,96687.00
2022-11-17T07:14:20.635Z,96684.00
2022-11-17T07:15:53.899Z,96688.00
2022-11-17T07:17:27.203Z,96677.00
2022-11-17T07:19:03.287Z,96689.00
2022-11-17T07:20:36.427Z,96691.00
2022-11-17T07:22:09.605Z,96703.00
2022-11-17T07:23:44.762Z,96701.00
2022-11-17T07:25:22.283Z,96699.00
2022-11-17T07:26:55.902Z,96698.00
2022-11-17T07:28:31.473Z,96714.00
2022-11-17T07:30:06.953Z,96713.00
2022-11-17T07:31:40.186Z,96709.00
2022-11-17T07:33:13.749Z,96706.00
2022-11-17T07:34:46.926Z,96713.00
2022-11-17T07:36:20.078Z,96720.00
2022-11-17T07:37:53.518Z,96711.00
2022-11-17T07:39:27.734Z,96713.00
2022-11-17T07:41:01.140Z,96710.00
2022-11-17T07:42:34.988Z,96707.00
2022-11-17T07:44:13.221Z,96725.00
2022-11-17T07:45:46.268Z,96715.00
2022-11-17T07:47:20.991Z,96713.00
2022-11-17T07:48:55.648Z,96716.00
2022-11-17T07:50:30.424Z,96715.00
2022-11-17T07:52:03.848Z,96709.00
2022-11-17T07:53:37.373Z,96703.00
2022-11-17T07:55:10.805Z,96706.00
2022-11-17T07:56:43.930Z,96715.00
2022-11-17T07:58:18.177Z,96714.00
2022-11-17T07:59:52.621Z,96718.00
2022-11-17T08:01:27.263Z,96713.00
2022-11-17T08:03:04.231Z,96716.00
2022-11-17T08:04:37.388Z,96713.00
2022-11-17T08:06:10.880Z,96711.00
2022-11-17T08:07:44.291Z,96724.00
2022-11-17T08:09:17.936Z,96720.00
2022-11-17T08:10:51.328Z,96718.00
2022-11-17T08:12:24.950Z,96727.00
2022-11-17T08:13:59.029Z,96719.00
2022-11-17T08:15:33.872Z,96718.00
2022-11-17T08:17:07.056Z,96716.00
2022-11-17T08:18:41.355Z,96728.00
2022-11-17T08:20:15.312Z,96729.00
2022-11-17T08:21:51.083Z,96735.00
2022-11-17T08:23:24.214Z,96745.00
2022-11-17T08:24:57.373Z,96739.00
2022-11-17T08:26:30.478Z,96747.00
2022-11-17T08:28:03.758Z,96745.00
2022-11-17T08:29:37.117Z,96736.00
2022-11-17T08:31:12.511Z,96747.00
2022-11-17T08:32:49.874Z,96754.00
2022-11-17T08:34:23.146Z,96760.00
2022-11-17T08:35:59.022Z,96763.00
2022-11-17T08:37:32.388Z,96768.00
2022-11-17T08:39:05.825Z,96762.00
2022-11-17T08:40:39.645Z,96768.00
2022-11-17T08:42:12.879Z,96758.00
2022-11-17T08:43:46.064Z,96773.00
2022-11-17T08:45:19.496Z,96768.00
2022-11-17T08:46:54.032Z,96772.00
2022-11-17T08:48:29.416Z,96774.00
2022-11-17T08:50:03.079Z,96772.00
2022-11-17T08:51:36.216Z,96778.00
2022-11-17T08:53:15.517Z,96777.00
2022-11-17T08:54:48.637Z,96781.00
2022-11-17T08:56:22.132Z,96783.00
2022-11-17T08:57:55.487Z,96791.00
2022-11-17T08:59:28.656Z,96785.00
2022-11-17T09:01:05.327Z,96795.00
2022-11-17T09:02:40.454Z,96795.00
2022-11-17T09:04:13.640Z,96802.00
2022-11-17T09:05:48.320Z,96795.00
2022-11-17T09:07:21.937Z,96797.00
2022-11-17T09:08:56.208Z,96796.00
2022-11-17T09:10:29.939Z,96811.00
2022-11-17T09:12:03.373Z,96792.00
2022-11-17T09:13:37.252Z,96797.00
2022-11-17T09:15:12.216Z,96808.00
2022-11-17T09:16:45.471Z,96805.00
2022-11-17T09:18:20.281Z,96808.00
2022-11-17T09:19:53.807Z,96814.00
2022-11-17T09:21:28.387Z,96805.00
2022-11-17T09:23:02.130Z,96815.00
2022-11-17T09:24:35.520Z,96815.00
2022-11-17T09:26:12.197Z,96817.00
2022-11-17T09:27:45.283Z,96820.00
2022-11-17T09:29:19.559Z,96818.00
2022-11-17T09:30:53.084Z,96823.00
2022-11-17T09:32:26.298Z,96826.00
2022-11-17T09:34:05.356Z,96820.00
2022-11-17T09:35:40.278Z,96826.00
2022-11-17T09:37:13.417Z,96824.00
2022-11-17T09:38:47.874Z,96828.00
2022-11-17T09:40:22.108Z,96827.00
2022-11-17T09:41:57.899Z,96827.00
2022-11-17T09:43:37.961Z,96825.00
2022-11-17T09:45:18.768Z,96831.00
2022-11-17T09:47:06.578Z,96826.00
2022-11-17T09:48:49.377Z,96820.00
2022-11-17T09:50:30.202Z,96832.00
2022-11-17T09:52:11.753Z,96825.00
2022-11-17T09:53:55.076Z,96830.00
2022-11-17T09:55:37.683Z,96819.00
2022-11-17T09:57:23.155Z,96831.00
2022-11-17T09:59:04.183Z,96834.00
2022-11-17T10:00:40.410Z,96834.00
2022-11-17T10:02:13.633Z,96843.00
2022-11-17T10:03:49.420Z,96843.00
2022-11-17T10:05:31.568Z,96827.00
2022-11-17T10:07:06.751Z,96842.00
2022-11-17T10:08:47.291Z,96849.00
2022-11-17T10:10:30.613Z,96844.00
2022-11-17T10:12:17.163Z,96844.00
2022-11-17T10:13:51.911Z,96845.00
2022-11-17T10:15:30.541Z,96850.00
2022-11-17T10:17:03.979Z,96855.00
2022-11-17T10:18:40.005Z,96853.00
2022-11-17T10:20:18.555Z,96843.00
2022-11-17T10:21:58.669Z,96846.00
2022-11-17T10:23:46.252Z,96848.00
2022-11-17T10:25:37.950Z,96851.00
2022-11-17T10:27:26.537Z,96860.00
2022-11-17T10:29:09.475Z,96862.00
2022-11-17T10:30:56.218Z,96857.00
2022-11-17T10:32:32.172Z,96860.00
2022-11-17T10:34:05.363Z,96859.00
2022-11-17T10:35:38.818Z,96861.00
2022-11-17T10:37:31.700Z,96861.00
2022-11-17T10:39:05.337Z,96864.00
2022-11-17T10:40:50.156Z,96872.00
2022-11-17T10:42:28.479Z,96866.00
2022-11-17T10:44:06.601Z,96867.00
2022-11-17T10:45:45.467Z,96869.00
2022-11-17T10:47:39.739Z,96873.00
2022-11-17T10:49:27.733Z,96866.00
2022-11-17T10:51:03.753Z,96873.00
2022-11-17T10:52:38.185Z,96871.00
2022-11-17T10:54:22.718Z,96871.00
2022-11-17T10:56:01.580Z,96871.00
2022-11-17T10:57:34.837Z,96879.00
2022-11-17T10:59:16.271Z,96871.00
2022-11-17T11:00:57.133Z,96869.00
2022-11-17T11:02:35.325Z,96870.00
2022-11-17T11:04:29.823Z,96867.00
2022-11-17T11:06:10.778Z,96866.00
2022-11-17T11:07:49.448Z,96871.00
2022-11-17T11:09:24.395Z,96870.00
2022-11-17T11:11:00.532Z,96870.00
2022-11-17T11:12:40.285Z,96869.00
2022-11-17T11:14:24.799Z,96879.00
2022-11-17T11:15:59.012Z,96879.00
2022-11-17T11:17:33.161Z,96880.00
2022-11-17T11:19:16.035Z,96886.00
2022-11-17T11:21:05.560Z,96889.00
2022-11-17T11:22:53.495Z,96885.00
2022-11-17T11:24:39.115Z,96890.00
2022-11-17T11:26:48.241Z,96885.00
2022-11-17T11:28:44.236Z,96891.00
2022-11-17T11:30:20.846Z,96896.00
2022-11-17T11:32:17.680Z,96901.00
2022-11-17T11:34:03.885Z,96896.00
2022-11-17T11:36:16.347Z,96902.00
2022-11-17T11:38:03.060Z,96892.00
2022-11-17T11:39:55.490Z,96895.00
2022-11-17T11:41:44.303Z,96901.00
2022-11-17T11:43:35.694Z,96901.00
2022-11-17T11:45:21.968Z,96903.00
2022-11-17T11:47:01.336Z,96911.00
2022-11-17T11:48:41.027Z,96909.00
2022-11-17T11:50:21.402Z,96905.00
2022-11-17T11:51:55.194Z,96907.00
2022-11-17T11:53:43.787Z,96915.00
2022-11-17T11:55:23.187Z,96907.00
2022-11-17T11:56:56.442Z,96918.00
2022-11-17T11:58:29.701Z,96917.00
2022-11-17T12:00:07.196Z,96918.00
2022-11-17T12:02:07.962Z,96918.00
2022-11-17T12:03:54.699Z,96914.00
2022-11-17T12:05:35.377Z,96915.00
2022-11-17T12:07:21.145Z,96913.00
2022-11-17T12:09:20.800Z,96922.00
2022-11-17T12:11:21.550Z,96915.00
2022-11-17T12:12:55.228Z,96920.00
2022-11-17T12:14:30.356Z,96916.00
2022-11-17T12:16:19.402Z,96921.00
2022-11-17T12:18:11.581Z,96919.00
2022-11-17T12:19:54.563Z,96919.00
2022-11-17T12:21:29.705Z,96924.00
2022-11-17T12:23:18.449Z,96927.00
2022-11-17T12:24:59.928Z,96925.00
2022-11-17T12:26:36.335Z,96926.00
2022-11-17T12:28:36.655Z,96940.00
2022-11-17T12:30:53.531Z,96936.00
2022-11-17T12:32:54.857Z,96932.00
2022-11-17T12:34:35.691Z,96925.00
2022-11-17T12:36:31.210Z,96929.00
2022-11-17T12:38:43.873Z,96931.00
2022-11-17T12:40:45.827Z,96933.00
2022-11-17T12:42:18.982Z,96932.00
2022-11-17T12:43:52.457Z,96934.00
2022-11-17T12:45:25.660Z,96932.00
2022-11-17T12:47:11.554Z,96938.00
2022-11-17T12:48:56.035Z,96938.00
2022-11-17T12:51:01.849Z,96931.00
2022-11-17T12:52:55.799Z,96933.00
2022-11-17T12:54:40.258Z,96933.00
2022-11-17T12:56:40.596Z,96937.00
2022-11-17T12:58:28.153Z,96939.00
2022-11-17T13:00:15.692Z,96938.00
2022-11-17T13:02:05.494Z,96946.00
2022-11-17T13:03:48.901Z,96949.00
2022-11-17T13:05:24.620Z,96946.00
2022-11-17T13:07:06.396Z,96954.00
2022-11-17T13:08:40.618Z,96946.00
2022-11-17T13:10:27.770Z,96958.00
2022-11-17T13:12:04.062Z,96950.00
2022-11-17T13:13:38.214Z,96948.00
2022-11-17T13:15:24.014Z,96945.00
2022-11-17T13:16:57.357Z,96949.00
2022-11-17T13:18:34.637Z,96940.00
2022-11-17T13:20:25.302Z,96947.00
2022-11-17T13:22:01.904Z,96944.00
2022-11-17T13:23:36.444Z,96943.00
2022-11-17T13:25:23.658Z,96944.00
2022-11-17T13:27:01.752Z,96954.00
2022-11-17T13:28:35.111Z,96959.00
2022-11-17T13:30:16.253Z,96959.00
2022-11-17T13:31:49.750Z,96951.00
2022-11-17T13:33:25.763Z,96956.00
2022-11-17T13:35:00.386Z,96957.00
2022-11-17T13:36:34.865Z,96966.00
2022-11-17T13:38:20.191Z,96962.00
2022-11-17T13:40:01.736Z,96962.00
2022-11-17T13:41:40.265Z,96960.00
2022-11-17T13:43:18.320Z,96963.00
2022-11-17T13:44:53.007Z,96963.00
2022-11-17T13:46:26.858Z,96967.00
2022-11-17T13:48:00.195Z,96963.00
2022-11-17T13:49:37.440Z,96967.00
2022-11-17T13:51:29.871Z,96968.00
2022-11-17T13:53:07.791Z,96956.00
2022-11-17T13:54:45.504Z,96957.00
2022-11-17T13:56:33.049Z,96962.00
2022-11-17T13:58:26.440Z,96966.00
2022-11-17T14:00:02.691Z,96962.00
2022-11-17T14:02:25.422Z,96963.00
2022-11-17T14:04:21.673Z,96969.00
2022-11-17T14:05:57.460Z,96972.00
2022-11-17T14:07:32.110Z,96965.00
2022-11-17T14:09:06.773Z,96965.00
2022-11-17T14:10:41.735Z,96971.00
2022-11-17T14:12:18.196Z,96964.00
2022-11-17T14:13:55.560Z,96971.00
2022-11-17T14:15:32.053Z,96962.00
2022-11-17T14:17:22.528Z,96955.00
2022-11-17T14:19:02.928Z,96968.00
2022-11-17T14:20:37.266Z,96964.00
2022-11-17T14:22:31.452Z,96970.00
2022-11-17T14:24:11.828Z,96978.00
2022-11-17T14:25:48.167Z,96969.00
2022-11-17T14:27:40.595Z,96975.00
2022-11-17T14:29:14.676Z,96976.00
2022-11-17T14:30:49.804Z,96972.00
2022-11-17T14:32:24.299Z,96977.00
2022-11-17T14:33:57.631Z,96970.00
2022-11-17T14:35:31.820Z,96975.00
2022-11-17T14:37:07.392Z,96972.00
2022-11-17T14:38:44.806Z,96975.00
2022-11-17T14:40:19.049Z,96985.00
2022-11-17T14:41:52.518Z,96973.00
2022-11-17T14:43:25.720Z,96989.00
2022-11-17T14:44:59.145Z,96988.00
2022-11-17T14:46:32.261Z,96991.00
2022-11-17T14:48:07.406Z,96989.00
2022-11-17T14:49:40.494Z,96985.00
2022-11-17T14:51:17.358Z,96991.00
2022-11-17T14:52:51.196Z,96984.00
2022-11-17T14:54:24.405Z,96987.00
2022-11-17T14:55:58.168Z,96986.00
2022-11-17T14:57:31.335Z,96999.00
2022-11-17T14:59:04.639Z,96986.00
2022-11-17T15:00:38.254Z,96990.00
2022-11-17T15:02:12.480Z,96998.00
2022-11-17T15:03:47.767Z,96996.00
2022-11-17T15:05:21.226Z,96991.00
2022-11-17T15:06:54.462Z,97002.00
2022-11-17T15:08:27.688Z,96997.00
2022-11-17T15:10:01.444Z,97001.00
2022-11-17T15:11:39.284Z,97005.00
2022-11-17T15:13:13.369Z,96999.00
2022-11-17T15:14:48.461Z,97001.00
2022-11-17T15:16:21.963Z,97004.00
2022-11-17T15:17:55.210Z,97008.00
2022-11-17T15:19:29.689Z,97005.00
2022-11-17T15:21:04.753Z,97011.00
2022-11-17T15:22:37.936Z,97006.00
2022-11-17T15:24:11.122Z,97011.00
2022-11-17T15:25:44.296Z,97009.00
2022-11-17T15:27:17.588Z,97014.00
2022-11-17T15:28:50.750Z,97023.00
2022-11-17T15:30:24.215Z,97021.00
2022-11-17T15:31:57.418Z,97023.00
2022-11-17T15:33:30.587Z,97033.00
2022-11-17T15:35:06.166Z,97019.00
2022-11-17T15:36:39.494Z,97025.00
2022-11-17T15:38:12.620Z,97030.00
2022-11-17T15:39:45.765Z,97026.00
2022-11-17T15:41:19.324Z,97026.00
2022-11-17T15:42:54.207Z,97033.00
2022-11-17T15:44:27.502Z,97038.00
2022-11-17T15:46:05.300Z,97037.00
2022-11-17T15:47:38.488Z,97038.00
2022-11-17T15:49:11.675Z,97035.00
2022-11-17T15:50:46.256Z,97036.00
2022-11-17T15:52:41.429Z,97035.00
2022-11-17T15:54:20.000Z,97027.00
2022-11-17T15:55:53.621Z,97029.00
2022-11-17T15:57:26.881Z,97031.00
2022-11-17T15:59:03.172Z,97041.00
2022-11-17T16:00:40.085Z,97033.00
2022-11-17T16:02:14.972Z,97037.00
2022-11-17T16:03:48.233Z,97033.00
2022-11-17T16:05:21.392Z,97041.00
2022-11-17T16:06:55.962Z,97042.00
2022-11-17T16:08:29.176Z,97036.00
2022-11-17T16:10:02.509Z,97044.00
2022-11-17T16:11:36.084Z,97042.00
2022-11-17T16:13:09.189Z,97047.00
2022-11-17T16:14:42.354Z,97048.00
2022-11-17T16:16:16.503Z,97044.00
2022-11-17T16:17:49.724Z,97044.00
2022-11-17T16:19:22.880Z,97046.00
2022-11-17T16:21:01.498Z,97045.00
2022-11-17T16:22:38.636Z,97054.00
2022-11-17T16:24:13.019Z,97052.00
2022-11-17T16:25:48.957Z,97055.00
2022-11-17T16:27:22.147Z,97050.00
2022-11-17T16:28:58.565Z,97060.00
2022-11-17T16:30:35.447Z,97061.00
2022-11-17T16:32:09.288Z,97061.00
2022-11-17T16:33:48.214Z,97068.00
2022-11-17T16:35:21.987Z,97063.00
2022-11-17T16:36:55.305Z,97071.00
2022-11-17T16:38:29.851Z,97079.00
2022-11-17T16:40:04.473Z,97072.00
2022-11-17T16:41:40.691Z,97079.00
2022-11-17T16:43:14.528Z,97077.00
2022-11-17T16:44:47.945Z,97085.00
2022-11-17T16:46:24.973Z,97092.00
2022-11-17T16:47:59.572Z,97080.00
2022-11-17T16:49:34.852Z,97085.00
2022-11-17T16:51:09.421Z,97089.00
2022-11-17T16:52:42.775Z,97088.00
2022-11-17T16:54:18.024Z,97091.00
2022-11-17T16:55:51.185Z,97098.00
2022-11-17T16:57:24.269Z,97087.00
2022-11-17T16:58:59.291Z,97094.00
2022-11-17T17:00:33.266Z,97086.00
2022-11-17T17:02:07.660Z,97090.00
2022-11-17T17:03:40.434Z,97091.00
2022-11-17T17:05:13.565Z,97091.00
2022-11-17T17:06:47.039Z,97092.00
2022-11-17T17:08:20.197Z,97093.00
2022-11-17T17:09:54.780Z,97098.00
2022-11-17T17:11:29.285Z,97092.00
2022-11-17T17:13:02.630Z,97085.00
2022-11-17T17:14:36.109Z,97105.00
2022-11-17T17:16:13.781Z,97098.00
2022-11-17T17:17:47.080Z,97091.00
2022-11-17T17:19:21.259Z,97109.00
2022-11-17T17:20:54.369Z,97108.00
2022-11-17T17:22:27.492Z,97099.00
2022-11-17T17:24:01.006Z,97103.00
2022-11-17T17:25:35.629Z,97109.00
2022-11-17T17:27:08.870Z,97114.00
2022-11-17T17:28:43.783Z,97112.00
2022-11-17T17:30:17.261Z,97109.00
2022-11-17T17:31:50.444Z,97106.00
2022-11-17T17:33:23.594Z,97121.00
2022-11-17T17:34:56.794Z,97118.00
2022-11-17T17:36:30.168Z,97113.00
2022-11-17T17:38:03.322Z,97113.00
2022-11-17T17:39:37.797Z,97117.00
2022-11-17T17:41:15.225Z,97115.00
2022-11-17T17:42:48.519Z,97118.00
2022-11-17T17:44:21.806Z,97120.00
2022-11-17T17:46:01.266Z,97117.00
2022-11-17T17:47:34.545Z,97116.00
2022-11-17T17:49:08.001Z,97120.00
2022-11-17T17:50:41.200Z,97112.00
2022-11-17T17:52:14.342Z,97114.00
2022-11-17T17:53:49.887Z,97116.00
2022-11-17T17:55:23.101Z,97118.00
2022-11-17T17:56:58.124Z,97122.00
2022-11-17T17:58:32.745Z,97111.00
2022-11-17T18:00:07.885Z,97118.00
2022-11-17T18:01:42.158Z,97123.00
2022-11-17T18:03:15.363Z,97122.00
2022-11-17T18:04:48.495Z,97111.00
2022-11-17T18:06:23.570Z,97120.00
2022-11-17T18:07:56.904Z,97128.00
2022-11-17T18:09:30.236Z,97127.00
2022-11-17T18:11:05.976Z,97122.00
2022-11-17T18:12:40.452Z,97132.00
2022-11-17T18:14:13.912Z,97135.00
2022-11-17T18:15:47.152Z,97130.00
2022-11-17T18:17:20.460Z,97127.00
2022-11-17T18:18:59.204Z,97136.00
2022-11-17T18:20:32.404Z,97130.00
2022-11-17T18:22:05.762Z,97135.00
2022-11-17T18:23:39.554Z,97138.00
2022-11-17T18:25:17.683Z,97142.00
2022-11-17T18:26:51.308Z,97143.00
2022-11-17T18:28:26.409Z,97149.00
2022-11-17T18:29:59.666Z,97143.00
2022-11-17T18:31:35.605Z,97144.00
2022-11-17T18:33:08.782Z,97141.00
2022-11-17T18:34:42.172Z,97144.00
2022-11-17T18:36:14.473Z,97145.00
2022-11-17T18:37:47.577Z,97141.00
2022-11-17T18:39:21.435Z,97147.00
2022-11-17T18:41:04.391Z,97148.00
2022-11-17T18:42:37.633Z,97152.00
2022-11-17T18:44:15.380Z,97148.00
2022-11-17T18:45:48.612Z,97151.00
2022-11-17T18:47:21.756Z,97155.00
2022-11-17T18:48:56.585Z,97160.00
2022-11-17T18:50:29.627Z,97157.00
2022-11-17T18:52:03.165Z,97155.00
2022-11-17T18:53:36.490Z,97168.00
2022-11-17T18:55:10.188Z,97168.00
2022-11-17T18:56:44.416Z,97170.00
2022-11-17T18:58:17.593Z,97173.00
2022-11-17T18:59:52.082Z,97169.00
2022-11-17T19:01:28.684Z,97178.00
2022-11-17T19:03:02.093Z,97176.00
2022-11-17T19:04:35.237Z,97170.00
2022-11-17T19:06:10.768Z,97175.00
2022-11-17T19:07:43.973Z,97179.00
2022-11-17T19:09:17.887Z,97179.00